Time;durP1;ratioP1;P1;durP2;ratioP2;P2;SDS_P1;SDS_P2;PMS_P1;PMS_P2;Temp;Humidity;BMP_temperature;BMP_pressure;BME280_temperature;BME280_humidity;BME280_pressure;Samples;Min_cycle;Max_cycle;Signal;HPM_P1;HPM_P2
2022/09/05 00:02:02;;;;;;;4.13;3.03;;;;;;;17.45;49.83;101735.22;4997213;28;20053;-75
2022/09/05 00:04:32;;;;;;;8.52;3.40;;;;;;;17.41;50.11;101729.25;5028554;28;20080;-75
2022/09/05 00:07:23;;;;;;;5.10;3.38;;;;;;;17.33;49.68;101728.94;5033869;28;20392;-76
2022/09/05 00:10:30;;;;;;;9.25;3.95;;;;;;;17.35;49.17;101727.03;5046491;28;20638;-75
2022/09/05 00:13:10;;;;;;;6.60;3.20;;;;;;;17.31;50.86;101730.88;5028189;28;20059;-77
2022/09/05 00:15:54;;;;;;;4.65;3.20;;;;;;;17.25;50.44;101733.97;5043798;28;20057;-76
2022/09/05 00:18:39;;;;;;;7.40;3.03;;;;;;;17.20;50.65;101734.28;5045070;28;20132;-76
2022/09/05 00:22:06;;;;;;;6.55;3.67;;;;;;;17.25;49.16;101730.47;5033518;28;20515;-75
2022/09/05 00:25:22;;;;;;;4.80;3.55;;;;;;;17.24;49.89;101731.41;5041049;28;20045;-76
2022/09/05 00:28:32;;;;;;;6.90;4.30;;;;;;;17.18;50.78;101741.50;5018045;28;20147;-76
2022/09/05 00:31:12;;;;;;;7.28;3.38;;;;;;;17.15;49.49;101727.56;5032751;28;20056;-76
2022/09/05 00:34:30;;;;;;;9.38;3.53;;;;;;;17.24;50.62;101742.03;5025453;28;20052;-75
2022/09/05 00:37:32;;;;;;;6.55;3.45;;;;;;;17.14;50.78;101742.69;5059172;28;20061;-75
2022/09/05 00:40:12;;;;;;;7.70;3.60;;;;;;;17.08;50.94;101752.91;5046990;28;20077;-75
2022/09/05 00:42:48;;;;;;;9.50;4.05;;;;;;;17.07;50.56;101745.88;5046433;28;20709;-75
2022/09/05 00:45:24;;;;;;;6.88;3.53;;;;;;;17.03;50.42;101749.72;5009008;28;20120;-76
2022/09/05 00:48:07;;;;;;;6.63;3.83;;;;;;;17.04;50.03;101752.25;5045149;28;20056;-75
2022/09/05 00:51:03;;;;;;;6.70;3.90;;;;;;;16.99;51.53;101759.69;5007688;28;20101;-75
2022/09/05 00:54:12;;;;;;;7.88;3.75;;;;;;;16.90;51.92;101755.00;5023538;28;20045;-75
2022/09/05 00:57:13;;;;;;;5.68;3.75;;;;;;;16.84;51.06;101758.94;4976518;28;20053;-74
2022/09/05 00:59:59;;;;;;;6.65;3.63;;;;;;;16.88;50.97;101760.41;5047827;28;21421;-74
2022/09/05 01:02:45;;;;;;;5.90;3.25;;;;;;;16.88;51.04;101759.56;5033122;28;20500;-75
2022/09/05 01:05:41;;;;;;;8.13;4.00;;;;;;;16.79;51.92;101757.50;5046522;28;20530;-76
2022/09/05 01:08:20;;;;;;;5.00;3.65;;;;;;;16.76;52.32;101753.28;5032287;28;20231;-76
2022/09/05 01:11:26;;;;;;;9.45;4.00;;;;;;;16.75;51.21;101756.00;5049766;28;20430;-76
2022/09/05 01:14:13;;;;;;;7.50;4.30;;;;;;;16.79;52.22;101754.84;4991410;28;20064;-76
2022/09/05 01:16:52;;;;;;;8.10;3.65;;;;;;;16.78;50.98;101758.47;5040121;28;20083;-76
2022/09/05 01:19:41;;;;;;;7.40;3.90;;;;;;;16.82;50.31;101757.31;5026074;28;20049;-75
2022/09/05 01:22:41;;;;;;;6.55;4.13;;;;;;;16.78;52.10;101761.97;5046506;28;20071;-75
2022/09/05 01:25:26;;;;;;;8.02;3.88;;;;;;;16.68;52.46;101766.19;5027374;28;20110;-76
2022/09/05 01:28:03;;;;;;;;;;;;;;;16.63;52.37;101758.53;5042699;28;20045;-76
2022/09/05 01:31:11;;;;;;;8.40;3.78;;;;;;;16.57;53.00;101753.63;5033109;28;19921;-76
2022/09/05 01:33:50;;;;;;;6.95;4.20;;;;;;;16.52;53.70;101758.34;5011844;28;20106;-76
2022/09/05 01:36:39;;;;;;;9.23;4.15;;;;;;;16.49;52.18;101769.22;4999205;28;20107;-75
2022/09/05 01:39:28;;;;;;;6.35;4.18;;;;;;;16.47;52.95;101757.81;5032277;28;20055;-75
2022/09/05 01:42:15;;;;;;;5.85;3.78;;;;;;;16.48;52.39;101758.66;5041375;28;20053;-75
2022/09/05 01:44:59;;;;;;;5.80;4.00;;;;;;;16.46;52.34;101754.31;5041831;28;20057;-75
2022/09/05 01:47:53;;;;;;;8.73;3.70;;;;;;;16.43;51.80;101754.50;5043849;28;20037;-75
2022/09/05 01:50:32;;;;;;;8.75;4.38;;;;;;;16.40;52.15;101756.53;5045915;28;20163;-75
2022/09/05 01:53:24;;;;;;;8.77;3.65;;;;;;;16.39;52.79;101770.75;5030488;28;20069;-76
2022/09/05 01:56:23;;;;;;;8.60;4.07;;;;;;;16.45;52.10;101765.91;5012945;28;20468;-75
2022/09/05 01:59:12;;;;;;;8.35;4.10;;;;;;;16.42;54.11;101765.25;5029759;28;20405;-75
2022/09/05 02:01:58;;;;;;;4.78;3.95;;;;;;;16.33;54.63;101766.69;5028242;28;20478;-75
2022/09/05 02:04:34;;;;;;;5.50;3.72;;;;;;;16.24;54.09;101772.59;5046271;28;20056;-75
2022/09/05 02:07:25;;;;;;;8.77;3.47;;;;;;;16.28;52.96;101765.28;5029787;28;20049;-75
2022/09/05 02:10:11;;;;;;;8.20;4.20;;;;;;;16.32;53.25;101777.44;5026694;28;20056;-77
2022/09/05 02:12:54;;;;;;;12.63;4.63;;;;;;;16.28;53.17;101768.78;5014553;28;20045;-75
2022/09/05 02:15:56;;;;;;;5.75;4.00;;;;;;;16.26;54.79;101764.56;5029736;28;20761;-76
2022/09/05 02:18:51;;;;;;;6.15;3.90;;;;;;;16.13;53.98;101765.34;5011154;28;20045;-77
2022/09/05 02:21:37;;;;;;;9.15;4.05;;;;;;;16.16;54.87;101770.44;5029512;28;20045;-76
2022/09/05 02:24:36;;;;;;;8.65;4.13;;;;;;;16.09;55.16;101766.47;5013546;28;20047;-76
2022/09/05 02:27:12;;;;;;;6.15;3.97;;;;;;;16.04;54.67;101773.03;5042357;28;20040;-76
2022/09/05 02:30:23;;;;;;;5.13;3.90;;;;;;;16.02;54.40;101770.47;5040233;28;20052;-77
2022/09/05 02:32:56;;;;;;;8.80;4.28;;;;;;;16.04;54.31;101771.22;5008568;28;20156;-75
2022/09/05 02:35:45;;;;;;;8.63;3.90;;;;;;;16.02;54.88;101773.13;5048192;28;20352;-75
2022/09/05 02:38:24;;;;;;;12.25;4.03;;;;;;;16.02;55.05;101772.25;5042595;28;20053;-75
2022/09/05 02:41:36;;;;;;;6.93;4.10;;;;;;;16.02;54.60;101767.81;5044663;28;20049;-75
2022/09/05 02:44:31;;;;;;;7.47;4.25;;;;;;;16.04;54.35;101773.88;5045163;28;20045;-74
2022/09/05 02:47:23;;;;;;;7.00;3.80;;;;;;;16.05;53.78;101770.28;5015466;28;20044;-75
2022/09/05 02:50:24;;;;;;;8.82;4.72;;;;;;;16.13;54.51;101775.97;5015195;28;20037;-75
2022/09/05 02:53:14;;;;;;;8.02;4.35;;;;;;;16.02;56.12;101777.56;5015479;28;20053;-75
2022/09/05 02:56:29;;;;;;;7.13;4.25;;;;;;;15.97;54.32;101774.38;5019969;28;20052;-76
2022/09/05 02:59:22;;;;;;;9.55;3.67;;;;;;;15.96;54.61;101773.50;5031052;28;20051;-76
2022/09/05 03:02:02;;;;;;;8.40;4.28;;;;;;;16.00;53.78;101776.84;5041566;28;20536;-76
2022/09/05 03:05:14;;;;;;;8.93;4.47;;;;;;;16.02;54.57;101777.56;5040329;28;20052;-76
2022/09/05 03:07:59;;;;;;;6.07;3.88;;;;;;;15.94;54.01;101773.63;5026585;28;20048;-76
2022/09/05 03:10:49;;;;;;;10.15;4.13;;;;;;;15.87;55.62;101766.97;5040678;28;20040;-76
2022/09/05 03:13:56;;;;;;;4.75;3.40;;;;;;;15.77;54.87;101773.81;5058356;28;20104;-76
2022/09/05 03:16:48;;;;;;;7.78;3.88;;;;;;;15.75;56.10;101773.06;5029737;28;20052;-76
2022/09/05 03:19:31;;;;;;;7.63;3.45;;;;;;;15.76;54.56;101765.94;5030338;28;20057;-76
2022/09/05 03:22:30;;;;;;;5.10;3.65;;;;;;;15.83;53.94;101765.47;5015078;28;20041;-75
2022/09/05 03:25:38;;;;;;;9.10;3.30;;;;;;;15.88;53.70;101766.03;5026880;28;20176;-76
2022/09/05 03:28:36;;;;;;;7.03;4.20;;;;;;;15.83;53.90;101764.63;5049681;28;20059;-76
2022/09/05 03:31:13;;;;;;;7.15;3.42;;;;;;;15.87;53.45;101763.47;5044545;28;20037;-76
2022/09/05 03:34:26;;;;;;;11.50;3.85;;;;;;;15.82;54.13;101774.38;5032859;28;20037;-75
2022/09/05 03:37:11;;;;;;;8.80;3.75;;;;;;;15.74;56.07;101762.53;5054062;28;20050;-76
2022/09/05 03:40:15;;;;;;;5.78;3.40;;;;;;;15.65;55.22;101772.78;5032335;28;20419;-76
2022/09/05 03:43:34;;;;;;;6.38;3.50;;;;;;;15.64;56.09;101770.22;5045165;28;20118;-76
2022/09/05 03:46:11;;;;;;;8.60;3.53;;;;;;;15.61;55.54;101771.22;4993424;28;20045;-75
2022/09/05 03:48:51;;;;;;;5.05;3.38;;;;;;;15.62;56.25;101767.59;5052885;28;20057;-75
2022/09/05 03:51:19;;;;;;;6.60;3.88;;;;;;;15.57;55.95;101771.50;5049554;28;20755;-76
2022/09/05 03:54:36;;;;;;;6.35;3.55;;;;;;;15.61;55.19;101773.88;5015534;28;20045;-76
2022/09/05 03:57:23;;;;;;;;;;;;;;;15.60;54.79;101764.22;5035990;28;20055;-75
2022/09/05 04:00:14;;;;;;;4.50;3.33;;;;;;;15.56;55.28;101762.69;5019790;28;20020;-76
2022/09/05 04:02:57;;;;;;;5.60;3.67;;;;;;;15.54;55.20;101761.09;5041433;28;21307;-73
2022/09/05 04:05:49;;;;;;;8.60;3.58;;;;;;;15.48;55.60;101770.25;5048229;28;20459;-72
2022/09/05 04:08:44;;;;;;;10.52;3.97;;;;;;;15.50;54.84;101765.75;5039218;28;20053;-72
2022/09/05 04:11:31;;;;;;;6.32;3.97;;;;;;;15.45;56.23;101771.31;5032730;28;20098;-72
2022/09/05 04:14:09;;;;;;;12.40;4.35;;;;;;;15.49;55.22;101776.44;4996186;28;20448;-74
2022/09/05 04:17:09;;;;;;;6.85;3.10;;;;;;;15.45;55.83;101771.31;5011039;28;20088;-73
2022/09/05 04:19:47;;;;;;;8.85;4.22;;;;;;;15.46;56.77;101774.81;5004598;28;20048;-73
2022/09/05 04:22:34;;;;;;;6.88;3.65;;;;;;;15.43;55.49;101775.00;5030674;28;20056;-74
2022/09/05 04:25:25;;;;;;;7.30;3.77;;;;;;;15.43;55.45;101777.66;5010196;28;20059;-74
2022/09/05 04:28:14;;;;;;;6.75;3.20;;;;;;;15.43;55.12;101773.19;5015719;28;20045;-74
2022/09/05 04:30:53;;;;;;;5.35;3.20;;;;;;;15.45;54.97;101779.28;5033726;28;20044;-74
2022/09/05 04:34:16;;;;;;;8.40;3.60;;;;;;;15.48;55.65;101774.72;5013682;28;20053;-75
2022/09/05 04:36:44;;;;;;;7.15;3.47;;;;;;;15.40;57.20;101785.78;4975040;28;20038;-75
2022/09/05 04:39:18;;;;;;;7.22;3.72;;;;;;;15.34;56.77;101783.53;4991743;28;20061;-74
2022/09/05 04:42:15;;;;;;;6.95;3.47;;;;;;;15.41;57.13;101788.38;5049508;28;20122;-75
2022/09/05 04:45:06;;;;;;;5.28;3.53;;;;;;;15.37;55.72;101786.84;5011062;28;20048;-74
2022/09/05 04:47:39;;;;;;;5.45;3.63;;;;;;;15.40;56.32;101785.78;5044235;28;20049;-75
2022/09/05 04:50:18;;;;;;;6.30;2.83;;;;;;;15.33;56.96;101795.94;5041555;28;20079;-75
2022/09/05 04:53:08;;;;;;;5.85;3.55;;;;;;;15.31;56.90;101787.25;5025520;28;20053;-75
2022/09/05 04:55:42;;;;;;;6.28;3.13;;;;;;;15.40;56.14;101792.00;5026110;28;20048;-75
2022/09/05 04:58:38;;;;;;;9.73;3.92;;;;;;;15.45;55.91;101791.72;5027367;28;20060;-74
2022/09/05 05:01:30;;;;;;;8.25;3.90;;;;;;;15.52;55.67;101790.38;5028734;28;20053;-75
2022/09/05 05:04:20;;;;;;;12.13;3.53;;;;;;;15.50;57.14;101792.28;5029847;28;20048;-74
2022/09/05 05:07:21;;;;;;;7.55;3.10;;;;;;;15.41;56.23;101796.34;5032353;28;20044;-74
2022/09/05 05:09:55;;;;;;;7.43;3.20;;;;;;;15.49;57.56;101795.88;5029856;28;20045;-74
2022/09/05 05:12:57;;;;;;;5.10;2.78;;;;;;;15.47;56.33;101788.94;5032918;28;20045;-74
2022/09/05 05:16:04;;;;;;;4.38;2.70;;;;;;;15.50;56.90;101797.59;5024361;28;20056;-76
2022/09/05 05:18:58;;;;;;;4.47;3.30;;;;;;;15.55;56.33;101802.59;5016895;28;20053;-74
2022/09/05 05:21:45;;;;;;;4.97;3.42;;;;;;;15.61;55.72;101804.88;5033550;28;20126;-75
2022/09/05 05:24:14;;;;;;;8.13;3.17;;;;;;;15.65;57.61;101809.94;5029451;28;20052;-75
2022/09/05 05:26:56;;;;;;;7.50;3.15;;;;;;;15.56;56.34;101805.16;5003857;28;20071;-74
2022/09/05 05:29:47;;;;;;;7.30;3.35;;;;;;;15.65;56.14;101815.25;5010692;28;20045;-72
2022/09/05 05:32:18;;;;;;;6.75;2.50;;;;;;;15.65;56.97;101811.75;5025437;28;20061;-72
2022/09/05 05:35:11;;;;;;;4.13;2.75;;;;;;;15.57;57.41;101816.63;5028888;28;20132;-74
2022/09/05 05:37:49;;;;;;;7.43;2.80;;;;;;;15.58;56.17;101813.03;5012868;28;20132;-75
2022/09/05 05:40:16;;;;;;;10.55;3.25;;;;;;;15.63;57.60;101817.13;5028399;28;20072;-75
2022/09/05 05:42:44;;;;;;;6.53;2.83;;;;;;;15.61;56.87;101810.19;5025903;28;20041;-74
2022/09/05 05:45:25;;;;;;;8.55;3.30;;;;;;;15.66;56.52;101814.28;5011171;28;20689;-74
2022/09/05 05:48:04;;;;;;;4.40;3.13;;;;;;;15.66;57.91;101814.28;5012393;28;20044;-76
2022/09/05 05:50:36;;;;;;;9.20;2.78;;;;;;;15.62;56.80;101817.19;5009937;28;20068;-74
2022/09/05 05:53:25;;;;;;;6.45;2.85;;;;;;;15.62;58.14;101815.38;5030212;28;20067;-74
2022/09/05 05:56:37;;;;;;;5.68;3.03;;;;;;;15.55;58.54;101808.78;5052709;28;20696;-74
2022/09/05 05:59:07;;;;;;;4.95;2.90;;;;;;;15.58;58.08;101813.91;5009491;28;20047;-75
2022/09/05 06:02:08;;;;;;;6.28;2.60;;;;;;;15.66;56.97;101811.63;5025613;28;20080;-76
2022/09/05 06:04:41;;;;;;;8.52;3.20;;;;;;;15.79;56.86;101808.22;5030313;22;20517;-67
2022/09/05 06:07:49;;;;;;;6.88;3.70;;;;;;;15.86;56.25;101818.38;5061619;28;20075;-65
2022/09/05 06:10:53;;;;;;;4.85;2.97;;;;;;;15.91;57.00;101820.75;5061313;28;20056;-66
2022/09/05 06:14:01;;;;;;;9.73;3.03;;;;;;;15.90;56.58;101819.06;5064882;28;20115;-66
2022/09/05 06:17:15;;;;;;;6.90;3.47;;;;;;;15.98;57.46;101818.56;5051663;28;20174;-66
2022/09/05 06:20:24;;;;;;;6.93;3.17;;;;;;;16.05;56.04;101822.56;5060678;28;20044;-65
2022/09/05 06:23:19;;;;;;;4.00;2.78;;;;;;;16.14;55.68;101820.16;5061378;28;20072;-65
2022/09/05 06:26:30;;;;;;;6.50;2.75;;;;;;;16.23;56.93;101820.53;5059254;28;20044;-66
2022/09/05 06:29:19;;;;;;;7.05;3.05;;;;;;;16.25;56.44;101827.44;5060813;28;20049;-65
2022/09/05 06:31:57;;;;;;;8.68;3.47;;;;;;;16.27;57.87;101817.59;5066402;28;20052;-65
2022/09/05 06:34:43;;;;;;;5.40;3.50;;;;;;;16.30;56.58;101832.47;5045883;28;20048;-66
2022/09/05 06:37:37;;;;;;;4.45;2.65;;;;;;;16.40;55.86;101826.47;5051015;28;20083;-66
2022/09/05 06:40:10;;;;;;;4.80;2.20;;;;;;;16.51;55.88;101835.56;5031373;28;20127;-66
2022/09/05 06:43:00;;;;;;;5.72;2.65;;;;;;;16.55;55.78;101821.97;5066187;28;20155;-66
2022/09/05 06:45:38;;;;;;;10.25;2.75;;;;;;;16.58;56.31;101827.09;5050584;28;20083;-67
2022/09/05 06:48:25;;;;;;;5.15;2.72;;;;;;;16.59;56.22;101828.78;5066042;28;20059;-66
2022/09/05 06:51:45;;;;;;;6.10;3.03;;;;;;;16.61;57.02;101836.66;5049164;28;20059;-66
2022/09/05 06:54:18;;;;;;;10.27;2.85;;;;;;;16.67;56.12;101842.44;5065562;28;20143;-66
2022/09/05 06:57:04;;;;;;;7.65;3.08;;;;;;;16.76;56.19;101841.03;5065928;28;20057;-66
2022/09/05 07:00:05;;;;;;;6.25;3.10;;;;;;;16.83;57.32;101849.44;5065293;28;20048;-66
2022/09/05 07:02:50;;;;;;;6.22;3.03;;;;;;;16.86;56.88;101851.91;5059259;28;20431;-66
2022/09/05 07:05:49;;;;;;;5.80;2.70;;;;;;;16.96;56.30;101845.88;5067272;28;20076;-66
2022/09/05 07:08:18;;;;;;;5.85;2.85;;;;;;;17.05;56.69;101851.53;5060508;28;20060;-66
2022/09/05 07:11:28;;;;;;;12.73;2.92;;;;;;;17.11;57.20;101857.31;5052531;28;20037;-66
2022/09/05 07:14:25;;;;;;;6.03;3.15;;;;;;;17.18;56.05;101858.59;5034831;28;20036;-66
2022/09/05 07:17:23;;;;;;;5.10;3.20;;;;;;;17.27;56.13;101861.59;5062703;28;20401;-66
2022/09/05 07:19:54;;;;;;;7.78;3.50;;;;;;;17.33;57.47;101867.34;5064233;28;20052;-66
2022/09/05 07:22:37;;;;;;;7.25;3.17;;;;;;;17.33;57.42;101863.84;5070501;28;20594;-66
2022/09/05 07:25:17;;;;;;;5.35;2.80;;;;;;;17.38;56.51;101862.59;5069364;28;20448;-66
2022/09/05 07:27:57;;;;;;;5.13;2.80;;;;;;;17.47;56.32;101861.06;5047265;28;20147;-65
2022/09/05 07:30:50;;;;;;;4.72;2.92;;;;;;;17.57;55.95;101864.84;5067898;28;20477;-66
2022/09/05 07:33:20;;;;;;;6.45;2.72;;;;;;;17.65;56.42;101856.31;5053789;28;20048;-66
2022/09/05 07:35:49;;;;;;;4.70;2.83;;;;;;;17.69;56.68;101863.97;5052798;28;21330;-65
2022/09/05 07:38:22;;;;;;;6.38;2.90;;;;;;;17.68;56.78;101862.28;5069282;28;20153;-66
2022/09/05 07:41:05;;;;;;;5.70;2.92;;;;;;;17.69;56.85;101866.63;5051201;28;20052;-65
2022/09/05 07:43:39;;;;;;;6.03;3.40;;;;;;;17.72;57.03;101858.44;5067907;28;20060;-66
2022/09/05 07:46:11;;;;;;;6.75;3.22;;;;;;;17.79;57.23;101863.41;5069562;28;20059;-66
2022/09/05 07:48:59;;;;;;;5.20;2.83;;;;;;;17.85;56.71;101863.81;5066911;28;20424;-66
2022/09/05 07:51:31;;;;;;;5.15;3.00;;;;;;;17.94;56.51;101863.16;5064680;28;20053;-65
2022/09/05 07:54:26;;;;;;;6.95;2.92;;;;;;;18.03;56.17;101867.00;5069206;28;20135;-65
2022/09/05 07:57:25;;;;;;;5.85;2.80;;;;;;;18.09;56.29;101865.69;5067937;28;20053;-66
2022/09/05 08:00:10;;;;;;;5.45;2.67;;;;;;;18.20;56.03;101868.47;5069626;28;20052;-66
2022/09/05 08:03:00;;;;;;;4.70;3.22;;;;;;;18.26;56.31;101869.84;5064800;28;20057;-66
2022/09/05 08:05:36;;;;;;;7.15;2.92;;;;;;;18.27;56.19;101863.53;5049693;28;20150;-65
2022/09/05 08:08:08;;;;;;;5.35;2.88;;;;;;;18.32;56.12;101867.56;5049799;28;20048;-66
2022/09/05 08:10:42;;;;;;;6.22;2.53;;;;;;;18.39;55.85;101860.84;5049767;28;20131;-65
2022/09/05 08:13:54;;;;;;;6.38;2.92;;;;;;;18.54;55.63;101868.69;5054155;28;20162;-64
2022/09/05 08:16:41;;;;;;;12.07;2.70;;;;;;;18.61;54.77;101869.97;5068145;28;20143;-65
2022/09/05 08:19:42;;;;;;;5.90;2.50;;;;;;;18.67;54.65;101874.84;5071590;28;20067;-65
2022/09/05 08:22:14;;;;;;;5.47;2.97;;;;;;;18.74;54.93;101868.13;5070241;28;20067;-65
2022/09/05 08:24:52;;;;;;;7.05;3.28;;;;;;;18.78;54.83;101864.28;5034482;28;20051;-65
2022/09/05 08:27:26;;;;;;;7.85;3.10;;;;;;;18.87;54.27;101868.94;5057545;28;20056;-64
2022/09/05 08:30:06;;;;;;;6.45;2.80;;;;;;;18.97;54.16;101866.41;5051189;28;20056;-64
2022/09/05 08:33:22;;;;;;;7.75;2.80;;;;;;;19.04;54.26;101864.13;5046458;28;20776;-64
2022/09/05 08:35:54;;;;;;;5.90;2.60;;;;;;;19.09;54.04;101856.63;5036234;28;20044;-64
2022/09/05 08:38:31;;;;;;;6.65;3.28;;;;;;;19.17;54.01;101857.75;5049164;28;20622;-65
2022/09/05 08:41:13;;;;;;;5.30;2.85;;;;;;;19.22;53.98;101852.91;5037123;28;20283;-65
2022/09/05 08:43:58;;;;;;;9.73;3.00;;;;;;;19.27;54.22;101849.03;5067789;28;20067;-65
2022/09/05 08:46:49;;;;;;;8.85;2.92;;;;;;;19.33;54.34;101843.25;5055149;28;20420;-65
2022/09/05 08:49:34;;;;;;;5.57;2.85;;;;;;;19.33;54.33;101846.78;5051864;28;20055;-65
2022/09/05 08:52:13;;;;;;;6.75;3.30;;;;;;;19.41;54.35;101841.69;5067941;28;20051;-64
2022/09/05 08:55:10;;;;;;;4.03;2.75;;;;;;;19.51;53.89;101841.00;5068332;28;20071;-65
2022/09/05 08:58:15;;;;;;;5.47;2.35;;;;;;;19.61;53.69;101831.31;5069525;28;20059;-65
2022/09/05 09:00:50;;;;;;;13.30;3.63;;;;;;;19.66;53.41;101832.66;5066353;28;20409;-64
2022/09/05 09:03:52;;;;;;;5.55;3.15;;;;;;;19.77;53.34;101825.59;5049417;28;20049;-64
2022/09/05 09:06:29;;;;;;;6.13;3.20;;;;;;;19.80;53.79;101830.72;5068987;28;20048;-64
2022/09/05 09:09:13;;;;;;;4.70;3.08;;;;;;;19.83;54.04;101825.16;5066256;28;20053;-65
2022/09/05 09:11:54;;;;;;;6.95;3.47;;;;;;;19.81;53.67;101824.41;5060675;28;20045;-64
2022/09/05 09:14:45;;;;;;;7.47;3.15;;;;;;;19.91;54.03;101818.22;5048273;28;20041;-66
2022/09/05 09:17:27;;;;;;;5.60;2.85;;;;;;;20.00;53.53;101824.66;5067232;28;20142;-64
2022/09/05 09:20:13;;;;;;;7.10;2.80;;;;;;;20.12;53.62;101825.47;5048040;28;20067;-64
2022/09/05 09:22:43;;;;;;;;;;;;;;;20.23;53.20;101814.78;5068574;28;20052;-65
2022/09/05 09:25:15;;;;;;;5.53;2.65;;;;;;;20.31;53.51;101819.50;5068204;28;19982;-64
2022/09/05 09:28:10;;;;;;;3.63;2.50;;;;;;;20.39;52.78;101822.41;5060533;28;20041;-65
2022/09/05 09:31:06;;;;;;;5.90;3.15;;;;;;;20.46;52.88;101820.94;5049758;28;20060;-64
2022/09/05 09:33:42;;;;;;;5.72;2.80;;;;;;;20.55;52.50;101822.03;5056294;28;20052;-65
2022/09/05 09:36:32;;;;;;;8.65;2.88;;;;;;;20.64;52.58;101832.00;5075733;28;20044;-65
2022/09/05 09:39:19;;;;;;;5.10;2.72;;;;;;;20.72;52.11;101827.72;5077566;28;20108;-65
2022/09/05 09:42:15;;;;;;;6.38;2.40;;;;;;;20.80;52.17;101827.06;5083794;28;20218;-66
2022/09/05 09:45:18;;;;;;;6.22;2.47;;;;;;;20.87;51.77;101820.22;5069179;28;20063;-66
2022/09/05 09:48:10;;;;;;;5.15;2.60;;;;;;;20.92;51.85;101828.72;5080991;28;20060;-65
2022/09/05 09:51:02;;;;;;;7.15;2.88;;;;;;;20.99;51.73;101821.03;5080193;28;20051;-66
2022/09/05 09:53:51;;;;;;;6.03;2.65;;;;;;;21.07;51.39;101818.53;5076853;28;20317;-65
2022/09/05 09:56:31;;;;;;;5.93;2.97;;;;;;;21.18;51.13;101821.16;5076138;28;20056;-65
2022/09/05 09:59:09;;;;;;;3.10;2.60;;;;;;;21.27;51.30;101816.00;5057935;28;20044;-65
2022/09/05 10:01:39;;;;;;;6.72;2.72;;;;;;;21.32;51.00;101821.84;5063913;28;20045;-66
2022/09/05 10:04:21;;;;;;;6.05;2.70;;;;;;;21.43;50.97;101821.78;5078922;28;20063;-66
2022/09/05 10:07:11;;;;;;;6.03;2.85;;;;;;;21.47;50.84;101818.69;5077584;28;20524;-65
2022/09/05 10:10:12;;;;;;;4.80;2.72;;;;;;;21.56;50.81;101809.00;5079209;28;20146;-65
2022/09/05 10:13:19;;;;;;;6.90;2.80;;;;;;;21.64;50.71;101801.16;5063905;28;20062;-65
2022/09/05 10:16:16;;;;;;;6.95;2.47;;;;;;;21.73;50.62;101797.69;5076674;28;20040;-65
2022/09/05 10:19:11;;;;;;;7.85;3.50;;;;;;;21.87;50.39;101809.03;5067560;28;20053;-66
2022/09/05 10:22:02;;;;;;;7.88;3.00;;;;;;;21.92;50.04;101796.06;5032930;28;20059;-65
2022/09/05 10:24:55;;;;;;;9.20;2.65;;;;;;;22.00;49.42;101789.03;5079068;28;20051;-65
2022/09/05 10:27:48;;;;;;;3.80;2.70;;;;;;;22.11;49.74;101790.78;5056059;28;20076;-65
2022/09/05 10:30:22;;;;;;;7.88;2.50;;;;;;;22.21;49.31;101794.34;5059966;28;20053;-65
2022/09/05 10:33:22;;;;;;;3.17;2.53;;;;;;;22.31;49.71;101788.16;5053627;28;20151;-64
2022/09/05 10:36:30;;;;;;;5.75;2.67;;;;;;;22.41;49.09;101787.19;5067068;28;20413;-65
2022/09/05 10:39:15;;;;;;;4.35;2.67;;;;;;;22.47;48.68;101775.06;5047616;28;20055;-64
2022/09/05 10:42:20;;;;;;;9.23;2.95;;;;;;;22.61;48.55;101780.00;5065694;28;20049;-64
2022/09/05 10:44:52;;;;;;;7.60;2.63;;;;;;;22.70;48.08;101773.78;5031031;28;20080;-65
2022/09/05 10:47:33;;;;;;;6.03;3.28;;;;;;;22.86;47.83;101765.16;5067169;28;20516;-65
2022/09/05 10:50:34;;;;;;;9.27;2.78;;;;;;;23.04;47.52;101765.31;5068050;28;20064;-65
2022/09/05 10:53:23;;;;;;;10.40;2.70;;;;;;;23.07;46.59;101759.66;5053232;28;20384;-66
2022/09/05 10:56:09;;;;;;;6.70;3.22;;;;;;;23.22;47.14;101757.34;5067464;28;20082;-65
2022/09/05 10:58:47;;;;;;;5.57;2.83;;;;;;;23.32;46.58;101749.25;5070403;28;20048;-66
2022/09/05 11:01:46;;;;;;;4.18;2.53;;;;;;;23.45;46.14;101753.31;5067293;28;20044;-66
2022/09/05 11:04:48;;;;;;;6.35;2.33;;;;;;;23.59;44.71;101754.66;5059442;28;20067;-65
2022/09/05 11:07:20;;;;;;;4.55;2.50;;;;;;;23.70;44.54;101738.41;5056229;28;20056;-65
2022/09/05 11:10:03;;;;;;;7.13;2.50;;;;;;;23.86;44.87;101739.56;5063887;28;20151;-65
2022/09/05 11:12:46;;;;;;;6.72;2.40;;;;;;;24.00;44.87;101729.19;5031227;28;20048;-65
2022/09/05 11:15:28;;;;;;;5.57;2.65;;;;;;;24.16;44.91;101741.09;5064979;28;20525;-65
2022/09/05 11:18:09;;;;;;;4.78;2.33;;;;;;;24.33;44.43;101732.19;5048066;28;20540;-65
2022/09/05 11:21:12;;;;;;;3.83;2.30;;;;;;;24.49;44.38;101731.53;5054272;28;20047;-66
2022/09/05 11:23:42;;;;;;;4.55;2.28;;;;;;;24.67;43.75;101736.91;5043882;28;20409;-66
2022/09/05 11:26:43;;;;;;;9.90;2.65;;;;;;;24.73;43.58;101731.75;5069797;28;20412;-66
2022/09/05 11:29:35;;;;;;;5.20;2.95;;;;;;;24.83;43.47;101728.13;5062413;28;20067;-64
2022/09/05 11:32:19;;;;;;;4.80;2.83;;;;;;;24.90;43.25;101732.75;5057781;28;20056;-63
2022/09/05 11:35:29;;;;;;;3.83;2.30;;;;;;;25.07;41.85;101730.13;5063154;28;20544;-65
2022/09/05 11:38:32;;;;;;;6.05;2.40;;;;;;;25.15;42.01;101738.31;5050455;28;20056;-64
2022/09/05 11:42:00;;;;;;;5.50;2.67;;;;;;;25.16;40.89;101735.44;5061366;28;20050;-65
2022/09/05 11:44:33;;;;;;;4.45;2.30;;;;;;;25.25;40.47;101737.19;5044598;28;20704;-64
2022/09/05 11:47:25;;;;;;;3.20;2.20;;;;;;;25.49;40.28;101728.41;5066887;28;20048;-64
2022/09/05 11:50:24;;;;;;;7.80;2.33;;;;;;;25.58;40.99;101723.91;5064688;28;20097;-65
2022/09/05 11:53:25;;;;;;;3.95;2.47;;;;;;;25.77;40.08;101722.81;5064105;28;20044;-64
2022/09/05 11:56:02;;;;;;;6.43;2.38;;;;;;;25.93;39.87;101713.91;5048333;28;20412;-65
2022/09/05 11:58:59;;;;;;;5.57;2.63;;;;;;;26.03;39.50;101720.03;5066287;28;20461;-65
2022/09/05 12:02:08;;;;;;;2.80;2.20;;;;;;;26.10;39.57;101722.91;5051293;28;20049;-65
2022/09/05 12:04:59;;;;;;;7.97;3.25;;;;;;;26.31;39.23;101715.19;5068405;28;20053;-65
2022/09/05 12:07:59;;;;;;;6.65;2.20;;;;;;;26.47;38.33;101720.63;5065691;28;20052;-65
2022/09/05 12:10:48;;;;;;;5.25;2.25;;;;;;;26.46;38.40;101715.41;5062003;28;20528;-65
2022/09/05 12:13:21;;;;;;;2.83;2.22;;;;;;;26.49;38.61;101718.59;5043939;28;20496;-65
2022/09/05 12:15:52;;;;;;;4.78;2.30;;;;;;;26.54;37.77;101711.88;5063173;28;20056;-65
2022/09/05 12:19:00;;;;;;;2.95;2.10;;;;;;;26.51;38.47;101710.31;5039700;28;20044;-65
2022/09/05 12:22:06;;;;;;;3.17;2.22;;;;;;;26.76;37.32;101703.91;5067863;28;20073;-64
2022/09/05 12:24:58;;;;;;;4.28;2.88;;;;;;;26.86;37.04;101711.84;5062437;28;20056;-65
2022/09/05 12:27:48;;;;;;;5.32;2.42;;;;;;;27.04;37.14;101698.13;5067736;28;20041;-65
2022/09/05 12:30:29;;;;;;;4.35;2.70;;;;;;;27.20;37.38;101703.53;5065515;28;20055;-65
2022/09/05 12:33:26;;;;;;;5.10;2.47;;;;;;;27.37;36.24;101698.06;5044876;28;20079;-65
2022/09/05 12:36:27;;;;;;;4.03;2.33;;;;;;;27.48;37.21;101695.00;5046590;28;20254;-65
2022/09/05 12:39:32;;;;;;;5.93;2.40;;;;;;;27.91;36.15;101700.88;5053100;28;20538;-64
2022/09/05 12:42:27;;;;;;;;;;;;;;;28.02;34.72;101697.78;5070287;28;20052;-64
2022/09/05 12:45:17;;;;;;;3.58;2.58;;;;;;;28.06;35.88;101688.28;5067612;28;20364;-65
2022/09/05 12:48:00;;;;;;;3.80;2.58;;;;;;;28.31;36.11;101693.50;5064024;28;20182;-65
2022/09/05 12:50:55;;;;;;;4.15;2.70;;;;;;;28.74;34.45;101684.72;5047621;28;20064;-65
2022/09/05 12:53:24;;;;;;;5.93;2.78;;;;;;;28.99;33.39;101676.34;5053705;28;20052;-64
2022/09/05 12:55:54;;;;;;;3.72;2.65;;;;;;;28.91;34.24;101685.41;5063332;28;20052;-64
2022/09/05 12:58:44;;;;;;;5.07;2.45;;;;;;;28.96;33.87;101682.16;5063620;28;20061;-65
2022/09/05 13:01:37;;;;;;;4.07;2.67;;;;;;;28.85;34.49;101688.81;5066007;28;20072;-65
2022/09/05 13:04:26;;;;;;;7.28;2.60;;;;;;;29.12;33.37;101687.38;5045409;28;20048;-64
2022/09/05 13:07:04;;;;;;;3.57;2.83;;;;;;;29.29;34.50;101681.78;5064864;28;20036;-65
2022/09/05 13:09:42;;;;;;;3.38;2.80;;;;;;;29.52;32.85;101685.22;5040294;28;20964;-65